Flight Track Log - Related Links

Times and Time Zones

All times are in EDT time to prevent confusion due to time zone crossing. See the EJA929 flight status page for this flight to view local times or setup timezone preferences in your user account.

Time Position Orientation Groundspeed Altitude Reporting Facility
EDT Latitude Longitude Course Direction KTS MPH feet Rate Location/Type
Thu 17:46:54 33.6150 -111.9614 259° West 224 258 4,000  Level Albuquerque Center
Thu 17:47:56 33.6458 -112.0347 297° West 252 290 7,500 3,339 Climbing Albuquerque Center
Thu 17:48:58 33.6917 -112.1272 301° West 272 313 10,900 2,468 Climbing Albuquerque Center
Thu 17:50:00 33.7719 -112.1744 334° Northwest 320 368 12,600 1,742 Climbing Albuquerque Center
Thu 17:51:02 33.8594 -112.2286 333° Northwest 347 399 14,500 2,242 Climbing Albuquerque Center
Thu 17:51:39 33.9186 -112.2678 331° Northwest 360 414 16,300 2,613 Climbing Albuquerque Center
Thu 17:52:04 33.9483 -112.2853 334° Northwest 357 411 17,200 2,581 Climbing Albuquerque Center
Thu 17:53:05 34.0367 -112.3422 332° Northwest 359 413 20,000 2,585 Climbing Albuquerque Center
Thu 17:54:07 34.1100 -112.4186 319° Northwest 348 400 22,500 2,177 Climbing Albuquerque Center
Thu 17:55:09 34.1850 -112.4958 320° Northwest 353 406 24,500 2,129 Climbing Albuquerque Center
Thu 17:56:11 34.2803 -112.5933 320° Northwest 373 429 26,900 2,194 Climbing Albuquerque Center
Thu 17:58:15 34.4433 -112.7656 319° Northwest 388 447 31,300 1,935 Climbing Albuquerque Center
Thu 17:59:17 34.5253 -112.8503 320° Northwest 403 464 32,900 1,500 Climbing Albuquerque Center
Thu 18:00:19 34.6144 -112.9431 319° Northwest 417 480 34,400 1,610 Climbing Albuquerque Center
Thu 18:01:20 34.7258 -113.0606 319° Northwest 437 503 36,200 1,610 Climbing Albuquerque Center
Thu 18:02:22 34.8192 -113.1600 319° Northwest 444 511 37,700 1,355 Climbing Albuquerque Center
Thu 18:03:24 34.9122 -113.2600 319° Northwest 445 512 39,000 1,113 Climbing Albuquerque Center
Thu 18:04:26 34.9928 -113.3683 312° West 436 502 40,000 484 Climbing Albuquerque Center
Thu 18:05:28 35.0422 -113.5047 294° West 436 502 40,000  Level Albuquerque Center
Thu 18:06:30 35.1119 -113.6325 304° West 448 516 40,000  Level Albuquerque Center
Thu 18:07:32 35.1844 -113.7622 304° West 458 527 40,000  Level Albuquerque Center
Thu 18:08:34 35.2714 -113.9167 305° West 461 531 40,000  Level Albuquerque Center
Thu 18:09:51 35.3567 -114.0672 305° West 464 534 40,000  Level Los Angeles Center
Thu 18:10:53 35.4294 -114.1969 305° West 463 533 40,000  Level Los Angeles Center
Thu 18:11:55 35.5172 -114.3536 305° West 462 532 40,000  Level Los Angeles Center
Thu 18:12:57 35.5892 -114.4856 304° West 464 534 40,000  Level Los Angeles Center
Thu 18:13:59 35.6611 -114.6150 304° West 460 529 40,000  Level Los Angeles Center
Thu 18:15:01 35.7331 -114.7456 304° West 460 529 40,000  Level Los Angeles Center
Thu 18:16:03 35.8050 -114.8761 304° West 460 529 40,000  Level Los Angeles Center
Thu 18:17:05 35.8900 -115.0314 304° West 456 525 40,000  Level Los Angeles Center
Thu 18:18:07 35.9619 -115.1633 304° West 462 532 40,000  Level Los Angeles Center
Thu 18:19:10 36.0342 -115.2978 304° West 468 539 40,000  Level Los Angeles Center
Thu 18:20:12 36.1067 -115.4300 304° West 465 535 40,000  Level Los Angeles Center
Thu 18:21:14 36.1778 -115.5642 303° West 461 531 40,000  Level Los Angeles Center
Thu 18:22:16 36.2514 -115.7028 303° West 467 537 40,000  Level Los Angeles Center
Thu 18:23:18 36.3244 -115.8408 303° West 470 541 40,000  Level Los Angeles Center
Thu 18:24:20 36.4044 -115.9897 304° West 468 539 40,000  Level Los Angeles Center
Thu 18:25:22 36.4753 -116.1222 304° West 463 533 40,000  Level Los Angeles Center
Thu 18:26:24 36.5456 -116.2581 303° West 466 536 40,000  Level Los Angeles Center
Thu 18:27:27 36.6164 -116.3922 303° West 464 534 40,000  Level Los Angeles Center
Thu 18:28:29 36.6875 -116.5283 303° West 466 536 40,000  Level Los Angeles Center
Thu 18:29:31 36.7731 -116.6933 303° West 472 543 40,000  Level Los Angeles Center
Thu 18:30:33 36.8681 -116.8058 317° Northwest 471 542 40,000  Level Los Angeles Center
Thu 18:31:35 36.9775 -116.8981 326° Northwest 473 544 40,000  Level Los Angeles Center
Thu 18:31:54 36.9994 -116.9153 328° Northwest 471 542 40,000  Level Oakland Center
Thu 18:32:56 37.1303 -117.0261 326° Northwest 473 544 40,000  Level Oakland Center
Thu 18:33:39 37.1869 -117.0944 316° Northwest 475 547 40,000  Level Los Angeles Center
Thu 18:33:57 37.2192 -117.1444 309° West 466 536 40,000  Level Oakland Center
Thu 18:34:59 37.3022 -117.2739 309° West 472 543 40,000 -390 Level Oakland Center
Thu 18:36:00 37.3853 -117.4003 310° West 470 541 39,200 -1,082 Descending Oakland Center
Thu 18:37:01 37.4667 -117.5197 311° West 454 522 37,800 -1,366 Descending Oakland Center
Thu 18:38:03 37.5442 -117.6344 310° West 434 499 36,400 -1,610 Descending Oakland Center
Thu 18:39:04 37.6189 -117.7533 308° West 431 496 34,500 -1,902 Descending Oakland Center
Thu 18:40:06 37.6928 -117.8750 308° West 432 497 32,500 -1,951 Descending Oakland Center
Thu 18:41:07 37.7339 -118.0217 290° West 461 531 30,500 -1,220 Descending Oakland Center
Thu 18:42:09 37.6942 -118.1817 253° West 483 556 30,000 -878 Descending Oakland Center
Thu 18:43:10 37.6036 -118.3628 238° Southwest 505 581 28,700 -1,707 Descending Oakland Center
Thu 18:44:12 37.5336 -118.5053 238° Southwest 484 557 26,500 -2,488 Descending Oakland Center
Thu 18:45:13 37.4639 -118.6483 238° Southwest 480 552 23,600 -2,213 Descending Oakland Center
Thu 18:46:14 37.3933 -118.7922 238° Southwest 482 555 22,000 -780 Descending Oakland Center
Thu 18:47:16 37.3208 -118.9361 238° Southwest 483 556 22,000 -871 Level Oakland Center
Thu 18:48:18 37.2533 -119.0778 239° Southwest 478 550 20,200 -1,854 Descending Oakland Center
Thu 18:49:19 37.1869 -119.2131 238° Southwest 457 526 18,200 -2,508 Descending Oakland Center
Thu 18:50:20 37.1764 -119.3528 265° West 423 487 15,100 -1,537 Descending Oakland Center
Thu 18:52:00 37.0177 -119.4986 236° Southwest  Level Estimated
Thu 18:53:25 37.1722 -119.7122 236° Southwest 332 382 11,900  Level Oakland Center
Thu 18:54:26 37.0828 -119.7447 196° South 336 387 11,200 -927 Descending Oakland Center
Thu 18:55:28 36.9969 -119.7753 196° South 319 367 10,000 -1,561 Descending Oakland Center
Thu 18:56:29 36.9206 -119.7519 166° South 293 337 8,000 -2,244 Descending Oakland Center
Thu 18:57:31 36.8494 -119.7092 154° Southeast 285 328 5,400 -2,537 Descending Oakland Center
Thu 18:58:32 36.7983 -119.6394 132° Southeast 275 316 2,800 -1,672 Descending Oakland Center
Thu 18:59:33 36.7400 -119.6067 156° South 223 257 2,000 -634 Descending Oakland Center
Thu 19:00:35 36.7364 -119.6514 264° West 138 159 1,500 -585 Descending Oakland Center
Thu 19:01:36 36.7583 -119.6889 306° West 126 145 800 -585 Descending Oakland Center
Thu 19:02:38 36.7783 -119.7239 306° West 124 143 300 -484 Descending Oakland Center

Login

Don't have an account? Register now (free) for customized features, flight alerts, and more!